sensor_id;sensor_type;location;lat;lon;timestamp;P1;durP1;ratioP1;P2;durP2;ratioP2
16994;SDS011;8614;48.522;9.206;2022-10-31T00:00:06;8.27;;;7.47;;
16994;SDS011;8614;48.522;9.206;2022-10-31T00:02:36;8.20;;;6.40;;
16994;SDS011;8614;48.522;9.206;2022-10-31T00:05:04;10.03;;;6.77;;
16994;SDS011;8614;48.522;9.206;2022-10-31T00:07:31;9.27;;;5.50;;
16994;SDS011;8614;48.522;9.206;2022-10-31T00:09:58;5.93;;;3.83;;
16994;SDS011;8614;48.522;9.206;2022-10-31T00:12:25;5.90;;;4.80;;
16994;SDS011;8614;48.522;9.206;2022-10-31T00:14:54;8.47;;;5.70;;
16994;SDS011;8614;48.522;9.206;2022-10-31T00:17:20;7.23;;;5.60;;
16994;SDS011;8614;48.522;9.206;2022-10-31T00:19:47;7.50;;;6.73;;
16994;SDS011;8614;48.522;9.206;2022-10-31T00:22:14;10.50;;;9.50;;
16994;SDS011;8614;48.522;9.206;2022-10-31T00:24:41;11.17;;;9.30;;
16994;SDS011;8614;48.522;9.206;2022-10-31T00:27:08;14.10;;;12.90;;
16994;SDS011;8614;48.522;9.206;2022-10-31T00:29:35;10.17;;;9.23;;
16994;SDS011;8614;48.522;9.206;2022-10-31T00:32:03;11.80;;;10.90;;
16994;SDS011;8614;48.522;9.206;2022-10-31T00:34:30;11.03;;;9.93;;
16994;SDS011;8614;48.522;9.206;2022-10-31T00:36:58;10.93;;;9.90;;
16994;SDS011;8614;48.522;9.206;2022-10-31T00:39:25;11.60;;;10.60;;
16994;SDS011;8614;48.522;9.206;2022-10-31T00:41:52;10.83;;;9.93;;
16994;SDS011;8614;48.522;9.206;2022-10-31T00:44:19;11.07;;;10.17;;
16994;SDS011;8614;48.522;9.206;2022-10-31T00:46:46;11.23;;;10.23;;
16994;SDS011;8614;48.522;9.206;2022-10-31T00:49:14;12.07;;;10.87;;
16994;SDS011;8614;48.522;9.206;2022-10-31T00:51:41;11.27;;;10.20;;
16994;SDS011;8614;48.522;9.206;2022-10-31T00:54:08;12.03;;;10.17;;
16994;SDS011;8614;48.522;9.206;2022-10-31T00:56:35;11.90;;;11.00;;
16994;SDS011;8614;48.522;9.206;2022-10-31T00:59:02;13.27;;;11.97;;
16994;SDS011;8614;48.522;9.206;2022-10-31T01:01:29;12.47;;;11.33;;
16994;SDS011;8614;48.522;9.206;2022-10-31T01:03:56;13.07;;;11.80;;
16994;SDS011;8614;48.522;9.206;2022-10-31T01:06:26;12.90;;;11.57;;
16994;SDS011;8614;48.522;9.206;2022-10-31T01:08:55;12.07;;;10.87;;
16994;SDS011;8614;48.522;9.206;2022-10-31T01:11:23;12.30;;;11.20;;
16994;SDS011;8614;48.522;9.206;2022-10-31T01:13:51;12.97;;;11.77;;
16994;SDS011;8614;48.522;9.206;2022-10-31T01:16:19;12.40;;;11.13;;
16994;SDS011;8614;48.522;9.206;2022-10-31T01:18:49;11.70;;;10.70;;
16994;SDS011;8614;48.522;9.206;2022-10-31T01:21:16;12.40;;;11.30;;
16994;SDS011;8614;48.522;9.206;2022-10-31T01:23:49;12.10;;;10.90;;
16994;SDS011;8614;48.522;9.206;2022-10-31T01:26:17;12.83;;;11.73;;
16994;SDS011;8614;48.522;9.206;2022-10-31T01:28:47;13.10;;;11.27;;
16994;SDS011;8614;48.522;9.206;2022-10-31T01:31:15;13.43;;;11.23;;
16994;SDS011;8614;48.522;9.206;2022-10-31T01:33:43;13.67;;;12.20;;
16994;SDS011;8614;48.522;9.206;2022-10-31T01:36:11;13.53;;;12.13;;
16994;SDS011;8614;48.522;9.206;2022-10-31T01:38:39;12.83;;;11.67;;
16994;SDS011;8614;48.522;9.206;2022-10-31T01:41:08;13.70;;;11.20;;
16994;SDS011;8614;48.522;9.206;2022-10-31T01:43:42;13.00;;;11.77;;
16994;SDS011;8614;48.522;9.206;2022-10-31T01:46:14;12.00;;;11.00;;
16994;SDS011;8614;48.522;9.206;2022-10-31T01:48:44;13.30;;;12.07;;
16994;SDS011;8614;48.522;9.206;2022-10-31T01:51:11;14.20;;;12.37;;
16994;SDS011;8614;48.522;9.206;2022-10-31T01:53:41;12.03;;;10.80;;
16994;SDS011;8614;48.522;9.206;2022-10-31T01:56:11;12.20;;;11.00;;
16994;SDS011;8614;48.522;9.206;2022-10-31T01:58:41;12.10;;;11.13;;
16994;SDS011;8614;48.522;9.206;2022-10-31T02:01:09;12.23;;;11.23;;
16994;SDS011;8614;48.522;9.206;2022-10-31T02:03:36;12.60;;;11.40;;
16994;SDS011;8614;48.522;9.206;2022-10-31T02:06:03;12.00;;;10.90;;
16994;SDS011;8614;48.522;9.206;2022-10-31T02:08:36;13.07;;;11.77;;
16994;SDS011;8614;48.522;9.206;2022-10-31T02:11:05;13.57;;;12.10;;
16994;SDS011;8614;48.522;9.206;2022-10-31T02:13:37;14.07;;;12.00;;
16994;SDS011;8614;48.522;9.206;2022-10-31T02:16:08;14.17;;;11.77;;
16994;SDS011;8614;48.522;9.206;2022-10-31T02:18:35;13.37;;;12.17;;
16994;SDS011;8614;48.522;9.206;2022-10-31T02:21:04;13.17;;;12.03;;
16994;SDS011;8614;48.522;9.206;2022-10-31T02:27:07;13.57;;;12.17;;
16994;SDS011;8614;48.522;9.206;2022-10-31T02:30:07;12.10;;;11.00;;
16994;SDS011;8614;48.522;9.206;2022-10-31T02:33:00;12.20;;;11.10;;
16994;SDS011;8614;48.522;9.206;2022-10-31T02:35:37;11.93;;;10.83;;
16994;SDS011;8614;48.522;9.206;2022-10-31T02:38:13;10.53;;;9.40;;
16994;SDS011;8614;48.522;9.206;2022-10-31T02:40:51;11.57;;;8.40;;
16994;SDS011;8614;48.522;9.206;2022-10-31T02:43:54;10.27;;;8.70;;
16994;SDS011;8614;48.522;9.206;2022-10-31T02:46:28;11.13;;;8.33;;
16994;SDS011;8614;48.522;9.206;2022-10-31T02:49:03;9.67;;;8.77;;
16994;SDS011;8614;48.522;9.206;2022-10-31T02:51:33;12.60;;;11.30;;
16994;SDS011;8614;48.522;9.206;2022-10-31T02:54:02;12.20;;;11.20;;
16994;SDS011;8614;48.522;9.206;2022-10-31T02:56:30;9.50;;;8.60;;
16994;SDS011;8614;48.522;9.206;2022-10-31T02:58:58;11.37;;;10.27;;
16994;SDS011;8614;48.522;9.206;2022-10-31T03:01:33;12.80;;;11.53;;
16994;SDS011;8614;48.522;9.206;2022-10-31T03:04:13;12.77;;;11.77;;
16994;SDS011;8614;48.522;9.206;2022-10-31T03:06:49;13.30;;;12.03;;
16994;SDS011;8614;48.522;9.206;2022-10-31T03:09:25;11.37;;;10.03;;
16994;SDS011;8614;48.522;9.206;2022-10-31T03:12:01;11.77;;;10.67;;
16994;SDS011;8614;48.522;9.206;2022-10-31T03:14:39;9.47;;;7.70;;
16994;SDS011;8614;48.522;9.206;2022-10-31T03:17:10;13.23;;;11.73;;
16994;SDS011;8614;48.522;9.206;2022-10-31T03:19:46;14.70;;;13.23;;
16994;SDS011;8614;48.522;9.206;2022-10-31T03:22:16;12.83;;;11.50;;
16994;SDS011;8614;48.522;9.206;2022-10-31T03:24:47;14.70;;;13.40;;
16994;SDS011;8614;48.522;9.206;2022-10-31T03:27:15;12.73;;;9.10;;
16994;SDS011;8614;48.522;9.206;2022-10-31T03:29:45;9.07;;;8.13;;
16994;SDS011;8614;48.522;9.206;2022-10-31T03:32:15;12.67;;;11.47;;
16994;SDS011;8614;48.522;9.206;2022-10-31T03:34:47;11.97;;;11.07;;
16994;SDS011;8614;48.522;9.206;2022-10-31T03:37:18;14.10;;;12.93;;
16994;SDS011;8614;48.522;9.206;2022-10-31T03:39:47;13.53;;;12.20;;
16994;SDS011;8614;48.522;9.206;2022-10-31T03:42:16;12.47;;;11.50;;
16994;SDS011;8614;48.522;9.206;2022-10-31T03:44:48;12.40;;;11.40;;
16994;SDS011;8614;48.522;9.206;2022-10-31T03:47:19;13.10;;;11.90;;
16994;SDS011;8614;48.522;9.206;2022-10-31T03:49:48;12.60;;;11.40;;
16994;SDS011;8614;48.522;9.206;2022-10-31T03:52:18;11.30;;;9.83;;
16994;SDS011;8614;48.522;9.206;2022-10-31T03:54:51;12.63;;;11.47;;
16994;SDS011;8614;48.522;9.206;2022-10-31T03:57:23;13.63;;;12.53;;
16994;SDS011;8614;48.522;9.206;2022-10-31T03:59:55;14.13;;;12.70;;
16994;SDS011;8614;48.522;9.206;2022-10-31T04:02:25;14.20;;;12.93;;
16994;SDS011;8614;48.522;9.206;2022-10-31T04:04:59;13.97;;;12.60;;
16994;SDS011;8614;48.522;9.206;2022-10-31T04:07:30;14.43;;;13.03;;
16994;SDS011;8614;48.522;9.206;2022-10-31T04:09:59;14.20;;;12.80;;
16994;SDS011;8614;48.522;9.206;2022-10-31T04:12:28;13.77;;;12.47;;
16994;SDS011;8614;48.522;9.206;2022-10-31T04:15:19;14.57;;;13.07;;
16994;SDS011;8614;48.522;9.206;2022-10-31T04:17:47;13.50;;;12.30;;
16994;SDS011;8614;48.522;9.206;2022-10-31T04:20:28;15.40;;;12.30;;
16994;SDS011;8614;48.522;9.206;2022-10-31T04:22:56;13.70;;;12.23;;
16994;SDS011;8614;48.522;9.206;2022-10-31T04:25:23;11.43;;;9.30;;
16994;SDS011;8614;48.522;9.206;2022-10-31T04:27:51;8.30;;;7.50;;
16994;SDS011;8614;48.522;9.206;2022-10-31T04:30:18;10.33;;;8.30;;
16994;SDS011;8614;48.522;9.206;2022-10-31T04:32:45;10.70;;;8.13;;
16994;SDS011;8614;48.522;9.206;2022-10-31T04:35:12;12.37;;;11.47;;
16994;SDS011;8614;48.522;9.206;2022-10-31T04:37:41;13.23;;;12.13;;
16994;SDS011;8614;48.522;9.206;2022-10-31T04:40:08;9.97;;;8.97;;
16994;SDS011;8614;48.522;9.206;2022-10-31T04:42:54;9.43;;;6.50;;
16994;SDS011;8614;48.522;9.206;2022-10-31T04:45:21;13.27;;;11.97;;
16994;SDS011;8614;48.522;9.206;2022-10-31T04:47:50;12.03;;;6.53;;
16994;SDS011;8614;48.522;9.206;2022-10-31T04:50:17;10.60;;;7.10;;
16994;SDS011;8614;48.522;9.206;2022-10-31T04:52:46;13.50;;;11.10;;
16994;SDS011;8614;48.522;9.206;2022-10-31T04:55:16;15.70;;;12.77;;
16994;SDS011;8614;48.522;9.206;2022-10-31T04:57:49;15.77;;;9.73;;
16994;SDS011;8614;48.522;9.206;2022-10-31T05:00:18;15.83;;;10.63;;
16994;SDS011;8614;48.522;9.206;2022-10-31T05:02:48;13.93;;;8.97;;
16994;SDS011;8614;48.522;9.206;2022-10-31T05:05:17;13.83;;;8.63;;
16994;SDS011;8614;48.522;9.206;2022-10-31T05:07:49;12.83;;;9.00;;
16994;SDS011;8614;48.522;9.206;2022-10-31T05:10:18;17.27;;;15.47;;
16994;SDS011;8614;48.522;9.206;2022-10-31T05:12:49;16.17;;;14.50;;
16994;SDS011;8614;48.522;9.206;2022-10-31T05:15:29;15.47;;;13.47;;
16994;SDS011;8614;48.522;9.206;2022-10-31T05:18:35;13.97;;;9.17;;
16994;SDS011;8614;48.522;9.206;2022-10-31T05:21:20;10.43;;;7.27;;
16994;SDS011;8614;48.522;9.206;2022-10-31T05:23:52;14.70;;;9.23;;
16994;SDS011;8614;48.522;9.206;2022-10-31T05:26:21;13.50;;;9.53;;
16994;SDS011;8614;48.522;9.206;2022-10-31T05:28:49;12.93;;;11.57;;
16994;SDS011;8614;48.522;9.206;2022-10-31T05:31:16;11.90;;;10.27;;
16994;SDS011;8614;48.522;9.206;2022-10-31T05:33:43;9.90;;;8.90;;
16994;SDS011;8614;48.522;9.206;2022-10-31T05:36:49;9.40;;;8.40;;
16994;SDS011;8614;48.522;9.206;2022-10-31T05:39:20;7.80;;;6.67;;
16994;SDS011;8614;48.522;9.206;2022-10-31T05:41:50;9.57;;;7.43;;
16994;SDS011;8614;48.522;9.206;2022-10-31T05:44:24;13.10;;;10.03;;
16994;SDS011;8614;48.522;9.206;2022-10-31T05:47:20;11.23;;;6.73;;
16994;SDS011;8614;48.522;9.206;2022-10-31T05:50:06;8.40;;;6.37;;
16994;SDS011;8614;48.522;9.206;2022-10-31T05:52:45;10.67;;;6.17;;
16994;SDS011;8614;48.522;9.206;2022-10-31T05:55:20;7.20;;;6.00;;
16994;SDS011;8614;48.522;9.206;2022-10-31T05:58:02;12.97;;;8.20;;
16994;SDS011;8614;48.522;9.206;2022-10-31T06:00:29;12.13;;;6.90;;
16994;SDS011;8614;48.522;9.206;2022-10-31T06:03:05;9.03;;;6.47;;
16994;SDS011;8614;48.522;9.206;2022-10-31T06:05:41;8.53;;;6.97;;
16994;SDS011;8614;48.522;9.206;2022-10-31T06:08:08;11.73;;;6.30;;
16994;SDS011;8614;48.522;9.206;2022-10-31T06:10:38;9.60;;;6.17;;
16994;SDS011;8614;48.522;9.206;2022-10-31T06:13:06;10.10;;;8.23;;
16994;SDS011;8614;48.522;9.206;2022-10-31T06:15:41;7.77;;;6.23;;
16994;SDS011;8614;48.522;9.206;2022-10-31T06:18:08;9.50;;;6.30;;
16994;SDS011;8614;48.522;9.206;2022-10-31T06:20:44;10.67;;;6.73;;
16994;SDS011;8614;48.522;9.206;2022-10-31T06:23:11;10.27;;;6.60;;
16994;SDS011;8614;48.522;9.206;2022-10-31T06:25:41;9.03;;;7.43;;
16994;SDS011;8614;48.522;9.206;2022-10-31T06:28:10;14.60;;;7.90;;
16994;SDS011;8614;48.522;9.206;2022-10-31T06:30:47;12.20;;;7.63;;
16994;SDS011;8614;48.522;9.206;2022-10-31T06:33:15;11.10;;;7.27;;
16994;SDS011;8614;48.522;9.206;2022-10-31T06:35:52;11.83;;;6.90;;
16994;SDS011;8614;48.522;9.206;2022-10-31T06:38:19;11.93;;;7.30;;
16994;SDS011;8614;48.522;9.206;2022-10-31T06:40:47;8.53;;;6.80;;
16994;SDS011;8614;48.522;9.206;2022-10-31T06:43:34;11.03;;;6.73;;
16994;SDS011;8614;48.522;9.206;2022-10-31T06:46:22;8.87;;;6.63;;
16994;SDS011;8614;48.522;9.206;2022-10-31T06:49:08;7.83;;;6.17;;
16994;SDS011;8614;48.522;9.206;2022-10-31T06:51:40;11.83;;;6.17;;
16994;SDS011;8614;48.522;9.206;2022-10-31T06:54:07;8.47;;;6.53;;
16994;SDS011;8614;48.522;9.206;2022-10-31T06:56:36;11.53;;;7.30;;
16994;SDS011;8614;48.522;9.206;2022-10-31T06:59:06;12.37;;;7.40;;
16994;SDS011;8614;48.522;9.206;2022-10-31T07:01:59;12.70;;;6.70;;
16994;SDS011;8614;48.522;9.206;2022-10-31T07:04:26;9.03;;;6.13;;
16994;SDS011;8614;48.522;9.206;2022-10-31T07:06:53;12.77;;;8.83;;
16994;SDS011;8614;48.522;9.206;2022-10-31T07:09:20;9.20;;;5.63;;
16994;SDS011;8614;48.522;9.206;2022-10-31T07:11:48;10.17;;;6.03;;
16994;SDS011;8614;48.522;9.206;2022-10-31T07:14:17;7.77;;;6.57;;
16994;SDS011;8614;48.522;9.206;2022-10-31T07:16:47;13.90;;;12.77;;
16994;SDS011;8614;48.522;9.206;2022-10-31T07:19:17;13.40;;;12.40;;
16994;SDS011;8614;48.522;9.206;2022-10-31T07:21:46;13.47;;;12.43;;
16994;SDS011;8614;48.522;9.206;2022-10-31T07:24:14;13.07;;;11.97;;
16994;SDS011;8614;48.522;9.206;2022-10-31T07:27:05;9.73;;;8.80;;
16994;SDS011;8614;48.522;9.206;2022-10-31T07:29:32;9.43;;;6.03;;
16994;SDS011;8614;48.522;9.206;2022-10-31T07:31:59;8.63;;;7.83;;
16994;SDS011;8614;48.522;9.206;2022-10-31T07:34:28;9.43;;;6.43;;
16994;SDS011;8614;48.522;9.206;2022-10-31T07:37:14;11.87;;;4.70;;
16994;SDS011;8614;48.522;9.206;2022-10-31T07:39:41;6.70;;;5.27;;
16994;SDS011;8614;48.522;9.206;2022-10-31T07:42:09;7.80;;;7.03;;
16994;SDS011;8614;48.522;9.206;2022-10-31T07:44:42;6.57;;;4.80;;
16994;SDS011;8614;48.522;9.206;2022-10-31T07:47:27;13.37;;;12.37;;
16994;SDS011;8614;48.522;9.206;2022-10-31T07:50:07;11.47;;;10.47;;
16994;SDS011;8614;48.522;9.206;2022-10-31T07:53:00;11.73;;;10.83;;
16994;SDS011;8614;48.522;9.206;2022-10-31T07:56:03;7.43;;;4.93;;
16994;SDS011;8614;48.522;9.206;2022-10-31T07:58:32;8.37;;;5.60;;
16994;SDS011;8614;48.522;9.206;2022-10-31T08:00:59;10.83;;;9.83;;
16994;SDS011;8614;48.522;9.206;2022-10-31T08:03:34;11.93;;;10.03;;
16994;SDS011;8614;48.522;9.206;2022-10-31T08:06:24;10.83;;;9.77;;
16994;SDS011;8614;48.522;9.206;2022-10-31T08:09:29;11.20;;;10.20;;
16994;SDS011;8614;48.522;9.206;2022-10-31T08:12:00;12.20;;;11.17;;
16994;SDS011;8614;48.522;9.206;2022-10-31T08:14:30;10.83;;;9.83;;
16994;SDS011;8614;48.522;9.206;2022-10-31T08:16:57;11.13;;;9.97;;
16994;SDS011;8614;48.522;9.206;2022-10-31T08:19:31;6.77;;;5.00;;
16994;SDS011;8614;48.522;9.206;2022-10-31T08:21:59;12.33;;;10.90;;
16994;SDS011;8614;48.522;9.206;2022-10-31T08:24:26;9.93;;;9.10;;
16994;SDS011;8614;48.522;9.206;2022-10-31T08:26:56;9.60;;;8.70;;
16994;SDS011;8614;48.522;9.206;2022-10-31T08:29:23;11.43;;;9.60;;
16994;SDS011;8614;48.522;9.206;2022-10-31T08:31:52;9.37;;;7.70;;
16994;SDS011;8614;48.522;9.206;2022-10-31T08:34:37;8.17;;;6.80;;
16994;SDS011;8614;48.522;9.206;2022-10-31T08:37:22;7.87;;;5.00;;
16994;SDS011;8614;48.522;9.206;2022-10-31T08:39:53;7.53;;;5.83;;
16994;SDS011;8614;48.522;9.206;2022-10-31T08:42:20;7.07;;;4.60;;
16994;SDS011;8614;48.522;9.206;2022-10-31T08:44:47;8.20;;;5.20;;
16994;SDS011;8614;48.522;9.206;2022-10-31T08:47:15;6.73;;;4.90;;
16994;SDS011;8614;48.522;9.206;2022-10-31T08:49:42;8.90;;;7.10;;
16994;SDS011;8614;48.522;9.206;2022-10-31T08:52:09;9.20;;;8.30;;
16994;SDS011;8614;48.522;9.206;2022-10-31T08:54:39;11.80;;;10.73;;
16994;SDS011;8614;48.522;9.206;2022-10-31T08:57:35;11.70;;;10.70;;
16994;SDS011;8614;48.522;9.206;2022-10-31T09:00:03;8.83;;;5.07;;
16994;SDS011;8614;48.522;9.206;2022-10-31T09:02:55;11.23;;;10.33;;
16994;SDS011;8614;48.522;9.206;2022-10-31T09:05:23;13.43;;;9.43;;
16994;SDS011;8614;48.522;9.206;2022-10-31T09:07:50;11.20;;;8.97;;
16994;SDS011;8614;48.522;9.206;2022-10-31T09:10:21;8.50;;;5.00;;
16994;SDS011;8614;48.522;9.206;2022-10-31T09:12:47;8.10;;;5.03;;
16994;SDS011;8614;48.522;9.206;2022-10-31T09:15:40;9.00;;;4.93;;
16994;SDS011;8614;48.522;9.206;2022-10-31T09:18:21;8.93;;;5.47;;
16994;SDS011;8614;48.522;9.206;2022-10-31T09:20:59;8.27;;;5.83;;
16994;SDS011;8614;48.522;9.206;2022-10-31T09:23:29;6.53;;;4.80;;
16994;SDS011;8614;48.522;9.206;2022-10-31T09:25:58;9.53;;;7.97;;
16994;SDS011;8614;48.522;9.206;2022-10-31T09:28:30;7.13;;;4.80;;
16994;SDS011;8614;48.522;9.206;2022-10-31T09:31:03;6.27;;;5.03;;
16994;SDS011;8614;48.522;9.206;2022-10-31T09:33:49;10.73;;;9.87;;
16994;SDS011;8614;48.522;9.206;2022-10-31T09:36:34;10.67;;;9.60;;
16994;SDS011;8614;48.522;9.206;2022-10-31T09:39:03;5.90;;;4.40;;
16994;SDS011;8614;48.522;9.206;2022-10-31T09:41:34;10.70;;;5.23;;
16994;SDS011;8614;48.522;9.206;2022-10-31T09:44:14;10.70;;;9.70;;
16994;SDS011;8614;48.522;9.206;2022-10-31T09:46:53;11.33;;;9.33;;
16994;SDS011;8614;48.522;9.206;2022-10-31T09:49:34;10.00;;;9.20;;
16994;SDS011;8614;48.522;9.206;2022-10-31T09:52:11;5.77;;;4.80;;
16994;SDS011;8614;48.522;9.206;2022-10-31T09:54:44;11.10;;;10.00;;
16994;SDS011;8614;48.522;9.206;2022-10-31T09:57:17;13.67;;;10.47;;
16994;SDS011;8614;48.522;9.206;2022-10-31T09:59:48;12.70;;;5.40;;
16994;SDS011;8614;48.522;9.206;2022-10-31T10:02:19;8.53;;;5.43;;
16994;SDS011;8614;48.522;9.206;2022-10-31T10:04:53;6.30;;;4.60;;
16994;SDS011;8614;48.522;9.206;2022-10-31T10:07:25;8.77;;;7.90;;
16994;SDS011;8614;48.522;9.206;2022-10-31T10:10:24;8.23;;;7.53;;
16994;SDS011;8614;48.522;9.206;2022-10-31T10:13:36;8.67;;;6.07;;
16994;SDS011;8614;48.522;9.206;2022-10-31T10:16:19;7.27;;;4.97;;
16994;SDS011;8614;48.522;9.206;2022-10-31T10:19:01;12.00;;;10.90;;
16994;SDS011;8614;48.522;9.206;2022-10-31T10:21:44;9.13;;;5.67;;
16994;SDS011;8614;48.522;9.206;2022-10-31T10:24:26;11.20;;;10.13;;
16994;SDS011;8614;48.522;9.206;2022-10-31T10:27:03;8.40;;;6.37;;
16994;SDS011;8614;48.522;9.206;2022-10-31T10:29:39;6.80;;;4.90;;
16994;SDS011;8614;48.522;9.206;2022-10-31T10:32:11;6.63;;;4.53;;
16994;SDS011;8614;48.522;9.206;2022-10-31T10:34:44;9.50;;;7.17;;
16994;SDS011;8614;48.522;9.206;2022-10-31T10:37:17;7.43;;;6.73;;
16994;SDS011;8614;48.522;9.206;2022-10-31T10:39:52;9.47;;;6.70;;
16994;SDS011;8614;48.522;9.206;2022-10-31T10:42:21;10.37;;;9.40;;
16994;SDS011;8614;48.522;9.206;2022-10-31T10:45:13;9.87;;;8.87;;
16994;SDS011;8614;48.522;9.206;2022-10-31T10:48:02;8.37;;;5.83;;
16994;SDS011;8614;48.522;9.206;2022-10-31T10:50:36;6.23;;;4.97;;
16994;SDS011;8614;48.522;9.206;2022-10-31T10:53:09;10.07;;;9.17;;
16994;SDS011;8614;48.522;9.206;2022-10-31T10:55:58;11.70;;;10.60;;
16994;SDS011;8614;48.522;9.206;2022-10-31T10:58:30;11.33;;;10.17;;
16994;SDS011;8614;48.522;9.206;2022-10-31T11:00:57;11.77;;;10.57;;
16994;SDS011;8614;48.522;9.206;2022-10-31T11:03:23;9.03;;;4.97;;
16994;SDS011;8614;48.522;9.206;2022-10-31T11:05:51;6.17;;;5.07;;
16994;SDS011;8614;48.522;9.206;2022-10-31T11:08:27;14.03;;;7.33;;
16994;SDS011;8614;48.522;9.206;2022-10-31T11:10:59;8.33;;;5.00;;
16994;SDS011;8614;48.522;9.206;2022-10-31T11:13:30;7.80;;;4.17;;
16994;SDS011;8614;48.522;9.206;2022-10-31T11:15:59;5.93;;;4.37;;
16994;SDS011;8614;48.522;9.206;2022-10-31T11:18:29;8.00;;;5.20;;
16994;SDS011;8614;48.522;9.206;2022-10-31T11:20:58;7.73;;;4.63;;
16994;SDS011;8614;48.522;9.206;2022-10-31T11:23:29;7.47;;;4.20;;
16994;SDS011;8614;48.522;9.206;2022-10-31T11:25:57;5.93;;;4.50;;
16994;SDS011;8614;48.522;9.206;2022-10-31T11:28:25;5.40;;;4.23;;
16994;SDS011;8614;48.522;9.206;2022-10-31T11:30:54;10.50;;;9.77;;
16994;SDS011;8614;48.522;9.206;2022-10-31T11:33:25;7.90;;;4.20;;
16994;SDS011;8614;48.522;9.206;2022-10-31T11:35:55;7.33;;;4.60;;
16994;SDS011;8614;48.522;9.206;2022-10-31T11:38:24;10.30;;;9.43;;
16994;SDS011;8614;48.522;9.206;2022-10-31T11:40:57;8.27;;;7.23;;
16994;SDS011;8614;48.522;9.206;2022-10-31T11:43:29;6.80;;;5.37;;
16994;SDS011;8614;48.522;9.206;2022-10-31T11:45:56;6.23;;;4.60;;
16994;SDS011;8614;48.522;9.206;2022-10-31T11:48:23;7.00;;;4.73;;
16994;SDS011;8614;48.522;9.206;2022-10-31T11:50:52;6.60;;;4.50;;
16994;SDS011;8614;48.522;9.206;2022-10-31T11:53:24;8.40;;;5.90;;
16994;SDS011;8614;48.522;9.206;2022-10-31T11:56:09;9.93;;;9.03;;
16994;SDS011;8614;48.522;9.206;2022-10-31T11:58:39;6.27;;;4.80;;
16994;SDS011;8614;48.522;9.206;2022-10-31T12:01:08;4.90;;;4.20;;
16994;SDS011;8614;48.522;9.206;2022-10-31T12:03:52;5.57;;;4.13;;
16994;SDS011;8614;48.522;9.206;2022-10-31T12:06:29;4.10;;;3.60;;
16994;SDS011;8614;48.522;9.206;2022-10-31T12:08:59;5.50;;;5.00;;
16994;SDS011;8614;48.522;9.206;2022-10-31T12:11:37;4.93;;;4.00;;
16994;SDS011;8614;48.522;9.206;2022-10-31T12:14:14;5.40;;;3.93;;
16994;SDS011;8614;48.522;9.206;2022-10-31T12:16:54;7.30;;;4.00;;
16994;SDS011;8614;48.522;9.206;2022-10-31T12:19:29;3.60;;;3.30;;
16994;SDS011;8614;48.522;9.206;2022-10-31T12:22:05;5.53;;;3.50;;
16994;SDS011;8614;48.522;9.206;2022-10-31T12:24:45;5.60;;;3.67;;
16994;SDS011;8614;48.522;9.206;2022-10-31T12:27:25;5.57;;;3.90;;
16994;SDS011;8614;48.522;9.206;2022-10-31T12:30:04;6.17;;;3.87;;
16994;SDS011;8614;48.522;9.206;2022-10-31T12:32:49;5.30;;;4.00;;
16994;SDS011;8614;48.522;9.206;2022-10-31T12:35:43;4.73;;;3.80;;
16994;SDS011;8614;48.522;9.206;2022-10-31T12:41:21;6.23;;;4.10;;
16994;SDS011;8614;48.522;9.206;2022-10-31T12:44:02;5.63;;;3.90;;
16994;SDS011;8614;48.522;9.206;2022-10-31T12:46:43;4.17;;;3.77;;
16994;SDS011;8614;48.522;9.206;2022-10-31T12:49:28;5.57;;;4.00;;
16994;SDS011;8614;48.522;9.206;2022-10-31T12:52:15;5.77;;;3.90;;
16994;SDS011;8614;48.522;9.206;2022-10-31T12:54:55;6.90;;;3.93;;
16994;SDS011;8614;48.522;9.206;2022-10-31T12:57:33;5.27;;;3.70;;
16994;SDS011;8614;48.522;9.206;2022-10-31T13:00:14;5.43;;;4.00;;
16994;SDS011;8614;48.522;9.206;2022-10-31T13:02:43;4.50;;;3.50;;
16994;SDS011;8614;48.522;9.206;2022-10-31T13:05:17;4.83;;;3.93;;
16994;SDS011;8614;48.522;9.206;2022-10-31T13:07:52;6.30;;;3.83;;
16994;SDS011;8614;48.522;9.206;2022-10-31T13:10:24;6.50;;;6.00;;
16994;SDS011;8614;48.522;9.206;2022-10-31T13:12:57;8.70;;;7.90;;
16994;SDS011;8614;48.522;9.206;2022-10-31T13:15:30;8.63;;;7.83;;
16994;SDS011;8614;48.522;9.206;2022-10-31T13:18:19;8.53;;;7.77;;
16994;SDS011;8614;48.522;9.206;2022-10-31T13:20:52;8.60;;;7.90;;
16994;SDS011;8614;48.522;9.206;2022-10-31T13:23:22;9.30;;;8.60;;
16994;SDS011;8614;48.522;9.206;2022-10-31T13:25:54;9.90;;;9.03;;
16994;SDS011;8614;48.522;9.206;2022-10-31T13:28:24;8.40;;;6.63;;
16994;SDS011;8614;48.522;9.206;2022-10-31T13:31:02;6.70;;;3.57;;
16994;SDS011;8614;48.522;9.206;2022-10-31T13:33:29;4.13;;;3.40;;
16994;SDS011;8614;48.522;9.206;2022-10-31T13:36:05;6.80;;;3.50;;
16994;SDS011;8614;48.522;9.206;2022-10-31T13:38:42;3.87;;;3.47;;
16994;SDS011;8614;48.522;9.206;2022-10-31T13:41:18;4.90;;;3.70;;
16994;SDS011;8614;48.522;9.206;2022-10-31T13:44:11;6.20;;;5.20;;
16994;SDS011;8614;48.522;9.206;2022-10-31T13:46:43;7.10;;;6.50;;
16994;SDS011;8614;48.522;9.206;2022-10-31T13:49:22;7.00;;;6.30;;
16994;SDS011;8614;48.522;9.206;2022-10-31T13:51:51;7.60;;;6.87;;
16994;SDS011;8614;48.522;9.206;2022-10-31T13:54:22;8.10;;;7.40;;
16994;SDS011;8614;48.522;9.206;2022-10-31T13:56:50;8.70;;;8.00;;
16994;SDS011;8614;48.522;9.206;2022-10-31T13:59:19;9.70;;;8.87;;
16994;SDS011;8614;48.522;9.206;2022-10-31T14:01:50;9.70;;;8.90;;
16994;SDS011;8614;48.522;9.206;2022-10-31T14:04:20;9.60;;;8.80;;
16994;SDS011;8614;48.522;9.206;2022-10-31T14:06:55;9.20;;;8.50;;
16994;SDS011;8614;48.522;9.206;2022-10-31T14:09:31;10.50;;;9.60;;
16994;SDS011;8614;48.522;9.206;2022-10-31T14:12:04;9.30;;;8.43;;
16994;SDS011;8614;48.522;9.206;2022-10-31T14:14:35;8.83;;;8.13;;
16994;SDS011;8614;48.522;9.206;2022-10-31T14:17:16;10.30;;;9.47;;
16994;SDS011;8614;48.522;9.206;2022-10-31T14:22:51;10.87;;;9.97;;
16994;SDS011;8614;48.522;9.206;2022-10-31T14:25:25;7.03;;;4.20;;
16994;SDS011;8614;48.522;9.206;2022-10-31T14:27:53;5.40;;;4.40;;
16994;SDS011;8614;48.522;9.206;2022-10-31T14:30:22;5.83;;;3.90;;
16994;SDS011;8614;48.522;9.206;2022-10-31T14:32:59;6.00;;;4.03;;
16994;SDS011;8614;48.522;9.206;2022-10-31T14:35:34;4.63;;;3.80;;
16994;SDS011;8614;48.522;9.206;2022-10-31T14:41:20;7.97;;;4.10;;
16994;SDS011;8614;48.522;9.206;2022-10-31T14:44:04;4.00;;;3.50;;
16994;SDS011;8614;48.522;9.206;2022-10-31T14:46:49;5.17;;;3.70;;
16994;SDS011;8614;48.522;9.206;2022-10-31T14:49:30;10.40;;;9.50;;
16994;SDS011;8614;48.522;9.206;2022-10-31T14:52:07;6.67;;;5.87;;
16994;SDS011;8614;48.522;9.206;2022-10-31T14:54:39;7.83;;;4.10;;
16994;SDS011;8614;48.522;9.206;2022-10-31T14:57:12;7.77;;;7.13;;
16994;SDS011;8614;48.522;9.206;2022-10-31T14:59:44;5.03;;;4.07;;
16994;SDS011;8614;48.522;9.206;2022-10-31T15:02:15;3.70;;;3.23;;
16994;SDS011;8614;48.522;9.206;2022-10-31T15:04:46;4.97;;;3.40;;
16994;SDS011;8614;48.522;9.206;2022-10-31T15:07:15;5.07;;;3.60;;
16994;SDS011;8614;48.522;9.206;2022-10-31T15:09:45;4.47;;;3.50;;
16994;SDS011;8614;48.522;9.206;2022-10-31T15:12:23;4.77;;;3.40;;
16994;SDS011;8614;48.522;9.206;2022-10-31T15:14:51;5.63;;;5.13;;
16994;SDS011;8614;48.522;9.206;2022-10-31T15:17:19;3.90;;;3.40;;
16994;SDS011;8614;48.522;9.206;2022-10-31T15:19:47;5.83;;;5.20;;
16994;SDS011;8614;48.522;9.206;2022-10-31T15:22:15;5.17;;;4.27;;
16994;SDS011;8614;48.522;9.206;2022-10-31T15:24:45;4.67;;;3.57;;
16994;SDS011;8614;48.522;9.206;2022-10-31T15:27:12;5.60;;;4.30;;
16994;SDS011;8614;48.522;9.206;2022-10-31T15:29:47;8.23;;;7.57;;
16994;SDS011;8614;48.522;9.206;2022-10-31T15:32:17;10.40;;;9.80;;
16994;SDS011;8614;48.522;9.206;2022-10-31T15:34:47;7.00;;;6.33;;
16994;SDS011;8614;48.522;9.206;2022-10-31T15:37:16;11.10;;;10.30;;
16994;SDS011;8614;48.522;9.206;2022-10-31T15:39:44;7.97;;;7.27;;